Terminal Aerodrome Forecast
Issued by NWS

Home | Current Version | Previous Version | Text Only | Print | Product List | Glossary On
Versions: 1 2 3 4 5 6 7 8 9 10 11 12 13 14 15 16 17 18 19 20 21
000
FTUS41 KPBZ 300300 AAB
TAFFKL
TAF AMD
KFKL 300323Z 3003/3024 22012G22KT P6SM SCT025 OVC035
      TEMPO 3003/3005 23020G30KT 4SM -SHSN BKN025
     FM300600 25010G18KT P6SM -SHSN BKN022
     FM301000 27012KT P6SM BKN015
     FM301800 27012G22KT P6SM BKN035
      AMD LTD TO CLD VIS AND WIND=

USA.gov is the U.S. government's official web portal to all federal, state and local government web resources and services.